Time;durP1;ratioP1;P1;durP2;ratioP2;P2;SDS_P1;SDS_P2;PMS_P1;PMS_P2;Temp;Humidity;BMP_temperature;BMP_pressure;BME280_temperature;BME280_humidity;BME280_pressure;Samples;Min_cycle;Max_cycle;Signal;HPM_P1;HPM_P2
2021/04/27 00:01:44;;;;;;;5.00;1.40;;;8.80;53.60;;;;;;5047708;28;20370;-65
2021/04/27 00:04:10;;;;;;;4.65;1.45;;;8.80;53.60;;;;;;5047356;28;20103;-65
2021/04/27 00:06:36;;;;;;;3.80;1.60;;;8.70;53.80;;;;;;5032087;28;20171;-64
2021/04/27 00:09:05;;;;;;;2.10;0.98;;;8.60;54.10;;;;;;5032221;28;20084;-63
2021/04/27 00:11:31;;;;;;;2.20;1.15;;;8.60;54.30;;;;;;5032201;28;20037;-64
2021/04/27 00:13:57;;;;;;;2.97;1.27;;;8.70;54.40;;;;;;5047496;28;20038;-63
2021/04/27 00:16:22;;;;;;;2.67;1.58;;;8.60;54.50;;;;;;5032094;28;20056;-64
2021/04/27 00:18:48;;;;;;;3.72;2.08;;;8.50;54.60;;;;;;5032016;28;20088;-64
2021/04/27 00:21:14;;;;;;;2.47;1.42;;;8.50;54.90;;;;;;5034040;28;20084;-63
2021/04/27 00:23:40;;;;;;;2.55;1.38;;;8.60;54.80;;;;;;5036313;28;20458;-64
2021/04/27 00:26:06;;;;;;;3.20;1.33;;;8.60;54.90;;;;;;5051638;28;20053;-64
2021/04/27 00:28:31;;;;;;;4.93;1.65;;;8.50;55.20;;;;;;5018060;28;20025;-63
2021/04/27 00:30:57;;;;;;;2.65;1.50;;;8.50;55.20;;;;;;5035903;28;20036;-63
2021/04/27 00:33:23;;;;;;;5.00;1.83;;;8.30;55.50;;;;;;5035836;28;20354;-63
2021/04/27 00:35:49;;;;;;;3.20;1.40;;;8.30;55.90;;;;;;5018058;28;20449;-64
2021/04/27 00:38:15;;;;;;;4.88;1.35;;;8.30;55.90;;;;;;5051234;28;20033;-63
2021/04/27 00:40:40;;;;;;;1.48;1.15;;;8.30;56.10;;;;;;5035713;28;20034;-64
2021/04/27 00:43:06;;;;;;;3.67;1.42;;;8.20;56.20;;;;;;5035884;28;20029;-64
2021/04/27 00:45:32;;;;;;;4.85;1.38;;;8.20;56.50;;;;;;5035741;28;20104;-65
2021/04/27 00:47:58;;;;;;;6.47;1.48;;;8.20;56.40;;;;;;5035774;28;20048;-64
2021/04/27 00:50:37;;;;;;;2.22;1.40;;;8.20;56.60;;;;;;5035712;28;20492;-64
2021/04/27 00:53:04;;;;;;;6.22;2.10;;;8.20;56.90;;;;;;5035638;28;20040;-64
2021/04/27 00:55:32;;;;;;;7.75;1.52;;;8.10;57.10;;;;;;5035563;28;20034;-64
2021/04/27 00:58:01;;;;;;;5.13;1.40;;;8.10;57.20;;;;;;5050563;28;20057;-64
2021/04/27 01:00:33;;;;;;;2.67;1.70;;;8.10;57.10;;;;;;5050386;28;20033;-64
2021/04/27 01:03:00;;;;;;;4.05;1.50;;;8.20;57.10;;;;;;5050085;28;20052;-64
2021/04/27 01:05:32;;;;;;;2.67;1.60;;;8.20;57.20;;;;;;5035072;28;20632;-64
2021/04/27 01:08:31;;;;;;;9.13;1.48;;;8.30;57.20;;;;;;5035141;28;20378;-65
2021/04/27 01:11:24;;;;;;;6.60;1.42;;;8.30;57.00;;;;;;5035150;28;20490;-64
2021/04/27 01:14:14;;;;;;;2.75;1.20;;;8.40;57.00;;;;;;5035231;28;20045;-65
2021/04/27 01:16:53;;;;;;;4.55;1.33;;;8.30;57.20;;;;;;5049965;28;20040;-64
2021/04/27 01:19:28;;;;;;;3.47;1.25;;;8.30;57.30;;;;;;5034794;28;20033;-65
2021/04/27 01:21:57;;;;;;;2.05;1.20;;;8.20;57.60;;;;;;5034672;28;20540;-65
2021/04/27 01:24:30;;;;;;;4.03;1.58;;;8.20;58.40;;;;;;5049914;28;20115;-64
2021/04/27 01:27:00;;;;;;;3.30;1.40;;;8.20;57.70;;;;;;5050503;28;20076;-64
2021/04/27 01:29:29;;;;;;;2.45;1.60;;;8.30;57.90;;;;;;5050039;28;20030;-64
2021/04/27 01:31:58;;;;;;;3.25;1.48;;;8.30;57.80;;;;;;5034494;28;20026;-64
2021/04/27 01:34:38;;;;;;;3.30;1.60;;;8.20;58.00;;;;;;5017034;28;20075;-65
2021/04/27 01:37:06;;;;;;;4.20;1.95;;;8.00;58.70;;;;;;5049699;28;20026;-65
2021/04/27 01:39:33;;;;;;;3.30;1.52;;;7.80;59.30;;;;;;5034713;28;20501;-65
2021/04/27 01:42:03;;;;;;;3.15;1.42;;;7.70;59.80;;;;;;5034439;28;20030;-64
2021/04/27 01:44:32;;;;;;;3.57;1.60;;;7.50;60.20;;;;;;5034681;28;20026;-64
2021/04/27 01:47:00;;;;;;;6.88;1.50;;;7.60;60.60;;;;;;5034691;28;20477;-64
2021/04/27 01:49:26;;;;;;;4.47;1.80;;;7.60;60.80;;;;;;5049771;28;20037;-64
2021/04/27 01:51:53;;;;;;;3.30;1.50;;;7.60;61.00;;;;;;5034304;28;20030;-63
2021/04/27 01:54:30;;;;;;;2.40;1.27;;;7.60;61.10;;;;;;5049768;28;20037;-64
2021/04/27 01:56:56;;;;;;;4.00;1.88;;;7.50;61.90;;;;;;5049649;28;20121;-63
2021/04/27 01:59:22;;;;;;;6.13;1.80;;;7.50;62.10;;;;;;5049757;28;20033;-64
2021/04/27 02:01:49;;;;;;;5.25;1.67;;;7.50;62.30;;;;;;5049783;28;20482;-64
2021/04/27 02:04:34;;;;;;;5.85;1.60;;;7.40;62.70;;;;;;5033975;28;20433;-64
2021/04/27 02:07:00;;;;;;;2.67;1.27;;;7.30;63.50;;;;;;5033833;28;20037;-65
2021/04/27 02:09:27;;;;;;;3.03;1.65;;;7.40;63.70;;;;;;5049409;28;20040;-65
2021/04/27 02:11:55;;;;;;;3.65;1.40;;;7.40;63.70;;;;;;5034260;28;20025;-64
2021/04/27 02:14:26;;;;;;;3.08;1.50;;;7.30;64.10;;;;;;5034041;28;20048;-64
2021/04/27 02:17:53;;;;;;;3.33;1.52;;;7.30;64.40;;;;;;5049405;28;20046;-64
2021/04/27 02:20:24;;;;;;;7.43;1.70;;;7.20;64.70;;;;;;5040025;28;20504;-63
2021/04/27 02:22:52;;;;;;;2.17;1.25;;;7.20;65.20;;;;;;5048929;28;20049;-65
2021/04/27 02:25:19;;;;;;;4.75;1.20;;;7.20;65.90;;;;;;5032413;28;20030;-64
2021/04/27 02:27:46;;;;;;;4.13;1.40;;;7.10;66.20;;;;;;5049158;28;20041;-64
2021/04/27 02:30:15;;;;;;;2.75;1.40;;;7.00;66.60;;;;;;5049134;28;20033;-64
2021/04/27 02:32:43;;;;;;;4.72;1.63;;;7.00;66.90;;;;;;5048774;28;20038;-64
2021/04/27 02:35:13;;;;;;;4.70;1.77;;;6.80;67.70;;;;;;5049198;28;20022;-65
2021/04/27 02:37:42;;;;;;;2.65;1.65;;;6.70;68.40;;;;;;5033772;28;20034;-64
2021/04/27 02:40:11;;;;;;;4.22;2.30;;;6.80;69.10;;;;;;5048730;28;20052;-64
2021/04/27 02:42:38;;;;;;;2.22;1.38;;;6.90;69.20;;;;;;5031844;28;20040;-64
2021/04/27 02:45:09;;;;;;;6.70;1.40;;;7.00;69.20;;;;;;5033494;28;20107;-64
2021/04/27 02:47:36;;;;;;;6.72;1.60;;;7.10;69.00;;;;;;5033620;28;20113;-64
2021/04/27 02:50:03;;;;;;;4.40;1.63;;;7.10;68.10;;;;;;5048555;28;20120;-64
2021/04/27 02:52:29;;;;;;;3.00;1.52;;;7.10;68.30;;;;;;5048427;28;20045;-63
2021/04/27 02:54:56;;;;;;;5.03;1.60;;;7.20;68.50;;;;;;5033185;28;20030;-63
2021/04/27 02:57:22;;;;;;;3.17;1.35;;;7.10;68.50;;;;;;5033298;28;20021;-65
2021/04/27 02:59:48;;;;;;;3.88;1.60;;;7.10;69.20;;;;;;5033361;28;20045;-64
2021/04/27 03:02:13;;;;;;;5.57;1.70;;;7.10;69.30;;;;;;5033213;28;20132;-64
2021/04/27 03:04:39;;;;;;;2.97;1.70;;;7.10;68.80;;;;;;5033174;28;20030;-64
2021/04/27 03:07:05;;;;;;;4.30;1.77;;;7.20;68.90;;;;;;5032927;28;20493;-64
2021/04/27 03:09:31;;;;;;;4.72;1.50;;;7.10;69.10;;;;;;5033074;28;20033;-65
2021/04/27 03:11:56;;;;;;;3.83;1.73;;;7.00;69.70;;;;;;5033157;28;20109;-64
2021/04/27 03:14:22;;;;;;;8.68;1.45;;;7.00;70.10;;;;;;5048295;28;20120;-65
2021/04/27 03:16:48;;;;;;;3.92;1.67;;;7.10;69.80;;;;;;5032869;28;20390;-64
2021/04/27 03:19:14;;;;;;;3.97;1.90;;;7.20;69.50;;;;;;5033022;28;20037;-64
2021/04/27 03:21:40;;;;;;;4.80;1.42;;;7.30;69.50;;;;;;5032709;28;20187;-64
2021/04/27 03:24:06;;;;;;;3.05;1.50;;;7.30;68.80;;;;;;5032977;28;20052;-65
2021/04/27 03:26:32;;;;;;;4.13;1.30;;;7.30;69.00;;;;;;5032403;28;20029;-65
2021/04/27 03:28:58;;;;;;;3.10;1.35;;;7.20;69.40;;;;;;5032610;28;20034;-65
2021/04/27 03:31:24;;;;;;;5.85;1.83;;;7.20;69.60;;;;;;5032680;28;20105;-65
2021/04/27 03:33:49;;;;;;;3.40;1.80;;;7.10;70.30;;;;;;5032752;28;20057;-65
2021/04/27 03:36:15;;;;;;;5.43;1.60;;;7.10;70.50;;;;;;5024591;28;20032;-65
2021/04/27 03:38:41;;;;;;;2.83;1.30;;;7.00;71.50;;;;;;5032587;28;20037;-64
2021/04/27 03:41:07;;;;;;;5.22;1.58;;;6.90;72.20;;;;;;5032403;28;20033;-64
2021/04/27 03:43:33;;;;;;;3.75;1.60;;;6.80;72.90;;;;;;5032587;28;20044;-64
2021/04/27 03:45:59;;;;;;;3.55;1.77;;;6.80;73.10;;;;;;5032759;28;20034;-65
2021/04/27 03:48:25;;;;;;;3.80;1.35;;;6.90;73.00;;;;;;5032471;28;20115;-64
2021/04/27 03:50:51;;;;;;;3.25;1.65;;;6.80;73.40;;;;;;5032243;28;20033;-65
2021/04/27 03:53:17;;;;;;;4.80;1.30;;;6.70;74.60;;;;;;5032014;28;20036;-65
2021/04/27 03:55:43;;;;;;;3.35;1.60;;;6.70;75.00;;;;;;5032138;28;20418;-67
2021/04/27 03:58:10;;;;;;;5.60;1.70;;;6.80;75.10;;;;;;5041609;28;20034;-67
2021/04/27 04:00:36;;;;;;;4.45;1.48;;;6.80;75.20;;;;;;5014591;28;20025;-67
2021/04/27 04:03:03;;;;;;;4.85;1.73;;;6.80;75.40;;;;;;5032428;28;20048;-68
2021/04/27 04:05:29;;;;;;;3.15;1.60;;;6.60;76.10;;;;;;5032121;28;20030;-65
2021/04/27 04:07:55;;;;;;;3.85;1.63;;;6.60;76.30;;;;;;5038249;28;20038;-65
2021/04/27 04:10:21;;;;;;;2.85;1.42;;;6.50;77.40;;;;;;5052186;28;20104;-66
2021/04/27 04:12:47;;;;;;;3.22;1.80;;;6.50;77.70;;;;;;5052110;28;20390;-65
2021/04/27 04:15:20;;;;;;;4.63;1.60;;;6.50;78.30;;;;;;5022559;28;20037;-65
2021/04/27 04:17:45;;;;;;;3.67;1.70;;;6.40;79.30;;;;;;5012537;28;20455;-67
2021/04/27 04:20:23;;;;;;;3.85;1.50;;;6.50;79.40;;;;;;5012400;28;20028;-66
2021/04/27 04:22:50;;;;;;;5.13;1.67;;;6.20;80.90;;;;;;5014472;28;20117;-65
2021/04/27 04:25:17;;;;;;;5.38;1.77;;;6.10;81.80;;;;;;5011487;28;20117;-65
2021/04/27 04:27:43;;;;;;;4.15;1.73;;;6.10;82.40;;;;;;5043018;28;20103;-65
2021/04/27 04:30:23;;;;;;;7.68;1.65;;;6.10;82.60;;;;;;5032084;28;20053;-66
2021/04/27 04:32:53;;;;;;;6.80;1.48;;;6.10;83.20;;;;;;5032067;28;20513;-66
2021/04/27 04:35:24;;;;;;;3.50;1.42;;;6.20;82.50;;;;;;5024450;28;20033;-66
2021/04/27 04:37:49;;;;;;;6.57;1.92;;;6.40;81.90;;;;;;5032139;28;20386;-66
2021/04/27 04:40:17;;;;;;;9.80;1.63;;;6.50;81.40;;;;;;5023812;28;20026;-65
2021/04/27 04:42:46;;;;;;;4.00;1.58;;;6.40;82.20;;;;;;5031613;28;20531;-66
2021/04/27 04:45:16;;;;;;;5.78;2.15;;;6.30;82.40;;;;;;5032036;28;20488;-67
2021/04/27 04:47:43;;;;;;;7.32;1.98;;;6.50;82.50;;;;;;5031766;28;20046;-66
2021/04/27 04:50:13;;;;;;;4.28;1.83;;;6.50;82.20;;;;;;5030713;28;20034;-70
2021/04/27 04:52:39;;;;;;;3.08;1.65;;;6.60;81.90;;;;;;5030262;28;20080;-66
2021/04/27 04:55:08;;;;;;;6.78;2.00;;;6.70;80.80;;;;;;5031776;28;20052;-67
2021/04/27 04:57:35;;;;;;;3.65;1.88;;;6.70;81.00;;;;;;5031783;28;20025;-67
2021/04/27 05:00:04;;;;;;;3.80;1.75;;;6.70;80.80;;;;;;5031797;28;20095;-67
2021/04/27 05:02:30;;;;;;;2.92;1.48;;;6.90;80.30;;;;;;5031680;28;20074;-68
2021/04/27 05:04:56;;;;;;;3.80;2.03;;;6.90;79.10;;;;;;5046976;28;20596;-67
2021/04/27 05:07:26;;;;;;;3.47;1.85;;;6.90;79.60;;;;;;5034006;28;20076;-67
2021/04/27 05:09:54;;;;;;;5.60;1.25;;;7.00;79.10;;;;;;5035181;28;20053;-67
2021/04/27 05:12:20;;;;;;;8.07;1.67;;;7.00;78.40;;;;;;5029845;28;20041;-66
2021/04/27 05:14:45;;;;;;;6.22;1.65;;;7.10;78.50;;;;;;5035108;28;20104;-67
2021/04/27 05:17:14;;;;;;;3.95;1.55;;;7.20;78.10;;;;;;5034941;28;20029;-66
2021/04/27 05:19:40;;;;;;;11.30;2.30;;;7.20;78.20;;;;;;5050446;28;20109;-67
2021/04/27 05:22:08;;;;;;;5.40;2.00;;;7.30;78.00;;;;;;5015532;28;20141;-67
2021/04/27 05:24:39;;;;;;;5.70;1.70;;;7.30;77.10;;;;;;5034895;28;20429;-66
2021/04/27 05:27:06;;;;;;;;;;;7.50;76.30;;;;;;5035175;28;20458;-66
2021/04/27 05:29:32;;;;;;;5.97;1.83;;;7.40;76.50;;;;;;5034583;28;20016;-67
2021/04/27 05:31:58;;;;;;;6.03;2.72;;;7.50;76.80;;;;;;5034368;28;20075;-67
2021/04/27 05:34:24;;;;;;;2.85;1.58;;;7.60;75.80;;;;;;5000775;28;20083;-67
2021/04/27 05:36:50;;;;;;;9.48;1.95;;;7.70;76.00;;;;;;5034532;28;20034;-67
2021/04/27 05:39:15;;;;;;;4.40;1.75;;;7.70;75.00;;;;;;5034821;28;20116;-66
2021/04/27 05:41:42;;;;;;;5.78;1.80;;;7.70;75.30;;;;;;5034369;28;20474;-67
2021/04/27 05:44:08;;;;;;;4.75;1.50;;;7.80;75.20;;;;;;5034841;28;20044;-67
2021/04/27 05:46:35;;;;;;;9.13;2.20;;;8.00;73.50;;;;;;5049884;28;20044;-66
2021/04/27 05:49:02;;;;;;;10.18;1.98;;;8.10;72.90;;;;;;5049739;28;20087;-67
2021/04/27 05:51:28;;;;;;;2.38;1.50;;;8.20;72.50;;;;;;5033156;28;20033;-69
2021/04/27 05:53:54;;;;;;;4.97;1.50;;;8.20;72.50;;;;;;5034470;28;20033;-67
2021/04/27 05:56:20;;;;;;;6.38;1.60;;;8.20;71.80;;;;;;5034193;28;20029;-68
2021/04/27 05:58:46;;;;;;;7.85;1.85;;;8.40;72.00;;;;;;5048357;28;20033;-67
2021/04/27 06:01:13;;;;;;;3.13;1.63;;;8.20;71.40;;;;;;5033478;28;20069;-67
2021/04/27 06:03:39;;;;;;;3.58;1.70;;;8.30;72.20;;;;;;5033754;28;20486;-68
2021/04/27 06:06:06;;;;;;;4.38;1.63;;;8.40;72.40;;;;;;5034298;28;20031;-68
2021/04/27 06:08:35;;;;;;;4.90;1.70;;;8.50;71.60;;;;;;5049466;28;20043;-67
2021/04/27 06:11:02;;;;;;;4.65;2.08;;;8.40;71.00;;;;;;5034014;28;20026;-67
2021/04/27 06:13:28;;;;;;;6.30;2.08;;;8.50;70.80;;;;;;5033952;28;20030;-67
2021/04/27 06:15:54;;;;;;;5.07;1.90;;;8.70;69.60;;;;;;5033660;28;20095;-67
2021/04/27 06:18:20;;;;;;;8.30;2.25;;;8.70;69.90;;;;;;5015003;28;20580;-66
2021/04/27 06:20:45;;;;;;;9.80;1.98;;;8.60;70.40;;;;;;5032902;28;20041;-67
2021/04/27 06:23:11;;;;;;;6.05;1.60;;;8.70;70.50;;;;;;5016046;28;20083;-68
2021/04/27 06:25:37;;;;;;;6.72;2.13;;;8.80;70.00;;;;;;5033445;28;20381;-66
2021/04/27 06:28:03;;;;;;;6.60;1.67;;;8.80;69.70;;;;;;5047638;28;20062;-66
2021/04/27 06:30:28;;;;;;;5.55;1.60;;;8.70;69.70;;;;;;5032685;28;20429;-67
2021/04/27 06:32:54;;;;;;;3.08;1.25;;;8.90;69.40;;;;;;5032823;28;20057;-66
2021/04/27 06:35:25;;;;;;;5.72;1.50;;;9.10;69.20;;;;;;5033638;28;20124;-66
2021/04/27 06:37:51;;;;;;;5.72;1.73;;;9.00;69.70;;;;;;5032302;28;20106;-67
2021/04/27 06:40:18;;;;;;;3.70;1.60;;;9.10;69.20;;;;;;5033692;28;20045;-65
2021/04/27 06:42:44;;;;;;;4.45;1.98;;;9.30;68.30;;;;;;5033472;28;20033;-67
2021/04/27 06:45:11;;;;;;;9.57;3.67;;;9.30;67.80;;;;;;5048443;28;20037;-67
2021/04/27 06:47:36;;;;;;;13.70;2.72;;;9.30;67.70;;;;;;5033324;28;20021;-66
2021/04/27 06:50:05;;;;;;;13.65;3.28;;;9.40;67.40;;;;;;5033445;28;20528;-66
2021/04/27 06:52:31;;;;;;;4.10;1.85;;;9.60;67.40;;;;;;5033207;28;20044;-66
2021/04/27 06:54:57;;;;;;;7.13;1.98;;;9.70;66.60;;;;;;5015300;28;20029;-68
2021/04/27 06:57:23;;;;;;;15.80;3.55;;;9.50;67.60;;;;;;5032820;28;20030;-66
2021/04/27 06:59:49;;;;;;;3.80;1.80;;;9.50;67.00;;;;;;5033074;28;20063;-66
2021/04/27 07:02:15;;;;;;;6.40;2.13;;;9.40;67.40;;;;;;5051316;28;20481;-67
2021/04/27 07:04:41;;;;;;;5.18;2.00;;;9.60;66.50;;;;;;5052037;28;20033;-66
2021/04/27 07:07:08;;;;;;;5.65;2.10;;;9.60;67.10;;;;;;5052966;28;20534;-66
2021/04/27 07:09:34;;;;;;;7.63;1.90;;;9.70;67.30;;;;;;5051733;28;20033;-67
2021/04/27 07:12:01;;;;;;;4.25;1.88;;;9.80;66.30;;;;;;5052567;28;20029;-67
2021/04/27 07:14:27;;;;;;;4.55;1.60;;;9.80;66.90;;;;;;5052716;28;20033;-67
2021/04/27 07:16:53;;;;;;;12.75;1.85;;;10.00;68.10;;;;;;5052334;28;20499;-67
2021/04/27 07:19:19;;;;;;;4.88;1.92;;;9.90;66.30;;;;;;5052723;28;20120;-66
2021/04/27 07:21:45;;;;;;;3.70;1.70;;;10.10;66.40;;;;;;5067548;28;20041;-65
2021/04/27 07:24:11;;;;;;;5.95;1.65;;;10.10;65.70;;;;;;5052515;28;20029;-67
2021/04/27 07:26:41;;;;;;;5.30;1.77;;;9.90;65.40;;;;;;5047802;28;20044;-66
2021/04/27 07:29:08;;;;;;;2.75;1.60;;;9.90;65.90;;;;;;5052190;28;20029;-66
2021/04/27 07:31:33;;;;;;;3.28;2.00;;;10.00;66.00;;;;;;5052614;28;20025;-66
2021/04/27 07:33:59;;;;;;;5.65;1.85;;;10.20;65.50;;;;;;5052375;28;20036;-66
2021/04/27 07:36:25;;;;;;;4.25;1.73;;;10.30;65.10;;;;;;5052446;28;20092;-66
2021/04/27 07:38:51;;;;;;;3.83;1.73;;;10.40;65.50;;;;;;5052222;28;20033;-66
2021/04/27 07:41:19;;;;;;;4.38;1.67;;;10.40;64.30;;;;;;5052371;28;20108;-67
2021/04/27 07:43:44;;;;;;;4.78;2.03;;;10.10;64.80;;;;;;5050975;28;20025;-67
2021/04/27 07:46:10;;;;;;;6.75;1.88;;;10.30;65.30;;;;;;5051279;28;20037;-67
2021/04/27 07:48:36;;;;;;;7.03;1.85;;;10.30;64.30;;;;;;5034296;28;20053;-67
2021/04/27 07:51:02;;;;;;;6.43;2.20;;;10.40;63.90;;;;;;5050750;28;20044;-65
2021/04/27 07:53:28;;;;;;;8.65;2.35;;;10.50;63.70;;;;;;5051993;28;20043;-66
2021/04/27 07:55:53;;;;;;;4.47;1.90;;;10.60;63.20;;;;;;5050926;28;20036;-65
2021/04/27 07:58:20;;;;;;;3.65;1.80;;;10.30;63.00;;;;;;5051650;28;20083;-66
2021/04/27 08:00:45;;;;;;;4.22;2.42;;;10.40;63.20;;;;;;5050727;28;20060;-66
2021/04/27 08:03:11;;;;;;;8.32;2.40;;;10.30;63.10;;;;;;5033946;28;20457;-66
2021/04/27 08:05:38;;;;;;;7.75;1.88;;;10.30;63.80;;;;;;5050933;28;20033;-66
2021/04/27 08:08:04;;;;;;;3.75;1.88;;;10.60;63.70;;;;;;5052001;28;20052;-66
2021/04/27 08:10:30;;;;;;;8.10;2.60;;;10.80;62.60;;;;;;5052053;28;20465;-66
2021/04/27 08:12:56;;;;;;;4.50;2.20;;;10.70;65.60;;;;;;5051853;28;20025;-66
2021/04/27 08:15:27;;;;;;;4.85;2.22;;;10.70;65.60;;;;;;5034028;28;20082;-65
2021/04/27 08:17:54;;;;;;;5.97;2.20;;;10.60;64.90;;;;;;5051918;28;20057;-65
2021/04/27 08:20:21;;;;;;;6.70;2.10;;;10.70;66.00;;;;;;5051855;28;20111;-66
2021/04/27 08:22:47;;;;;;;6.35;2.05;;;10.80;64.40;;;;;;5051277;28;20053;-65
2021/04/27 08:25:17;;;;;;;3.78;2.00;;;10.90;64.60;;;;;;5052030;28;20134;-66
2021/04/27 08:27:44;;;;;;;4.75;1.77;;;11.30;63.30;;;;;;5051703;28;20044;-67
2021/04/27 08:30:11;;;;;;;4.85;2.05;;;11.50;62.90;;;;;;5051783;28;20021;-66
2021/04/27 08:32:37;;;;;;;6.10;2.17;;;11.70;63.10;;;;;;5051720;28;20039;-67
2021/04/27 08:35:05;;;;;;;5.13;2.47;;;11.60;62.60;;;;;;5051595;28;20033;-67
2021/04/27 08:37:31;;;;;;;4.10;2.10;;;11.40;62.90;;;;;;5050689;28;20112;-67
2021/04/27 08:39:58;;;;;;;4.68;2.17;;;11.20;64.00;;;;;;5050408;28;20074;-66
2021/04/27 08:42:27;;;;;;;6.28;2.20;;;11.30;64.50;;;;;;5053141;28;20037;-66
2021/04/27 08:44:53;;;;;;;6.32;2.83;;;11.20;63.50;;;;;;5037559;28;20142;-66
2021/04/27 08:47:22;;;;;;;4.22;2.08;;;11.40;62.70;;;;;;5055692;28;20047;-66
2021/04/27 08:49:48;;;;;;;7.22;2.42;;;11.60;62.00;;;;;;5055411;28;20068;-66
2021/04/27 08:52:14;;;;;;;5.85;2.08;;;11.60;61.60;;;;;;5055583;28;20053;-66
2021/04/27 08:54:40;;;;;;;5.38;1.98;;;11.50;62.90;;;;;;5055326;28;20477;-65
2021/04/27 08:57:06;;;;;;;4.53;2.10;;;11.80;61.60;;;;;;5055674;28;20029;-67
2021/04/27 08:59:33;;;;;;;6.55;2.70;;;12.00;61.20;;;;;;5055498;28;20116;-67
2021/04/27 09:01:59;;;;;;;4.75;2.72;;;11.80;61.60;;;;;;5055157;28;20056;-66
2021/04/27 09:04:44;;;;;;;5.50;2.42;;;12.10;60.90;;;;;;5055298;28;20053;-66
2021/04/27 09:07:21;;;;;;;6.47;2.78;;;12.00;59.80;;;;;;5037167;28;20120;-66
2021/04/27 09:09:58;;;;;;;4.82;2.38;;;12.40;60.10;;;;;;5055095;28;20039;-66
2021/04/27 09:12:31;;;;;;;7.88;2.50;;;12.60;59.50;;;;;;5055199;28;20104;-65
2021/04/27 09:14:59;;;;;;;7.30;2.30;;;12.70;59.20;;;;;;5054930;28;20032;-65
2021/04/27 09:17:30;;;;;;;9.63;2.85;;;13.00;58.30;;;;;;5051281;28;20108;-66
2021/04/27 09:19:58;;;;;;;8.52;2.65;;;13.10;58.40;;;;;;5069755;28;20036;-66
2021/04/27 09:22:30;;;;;;;5.47;2.90;;;12.80;58.20;;;;;;5054537;28;20060;-66
2021/04/27 09:25:07;;;;;;;7.75;2.75;;;13.10;58.90;;;;;;5053638;28;20052;-65
2021/04/27 09:27:41;;;;;;;7.13;2.50;;;13.10;58.20;;;;;;5054967;28;20043;-66
2021/04/27 09:30:27;;;;;;;8.63;3.05;;;13.30;57.70;;;;;;5054635;28;20025;-65
2021/04/27 09:33:00;;;;;;;8.32;3.17;;;13.40;56.90;;;;;;5054313;28;20504;-66
2021/04/27 09:35:45;;;;;;;6.72;2.50;;;12.90;58.00;;;;;;5054664;28;20442;-66
2021/04/27 09:38:21;;;;;;;5.25;2.33;;;13.10;57.50;;;;;;5053553;28;20037;-66
2021/04/27 09:40:53;;;;;;;8.77;2.67;;;13.30;58.30;;;;;;5050647;28;20025;-65
2021/04/27 09:43:24;;;;;;;5.25;2.50;;;13.30;57.10;;;;;;5069503;28;20134;-66
2021/04/27 09:45:52;;;;;;;4.95;2.40;;;13.70;57.10;;;;;;5054447;28;20436;-67
2021/04/27 09:48:46;;;;;;;5.20;2.75;;;13.90;57.70;;;;;;5054276;28;20061;-65
2021/04/27 09:51:19;;;;;;;6.43;2.95;;;13.90;58.10;;;;;;5054578;28;20385;-64
2021/04/27 09:53:55;;;;;;;6.65;2.95;;;13.90;57.20;;;;;;5054196;28;20532;-65
2021/04/27 09:56:51;;;;;;;6.80;2.70;;;14.30;57.10;;;;;;5054321;28;20037;-66
2021/04/27 09:59:30;;;;;;;5.40;2.63;;;14.50;54.80;;;;;;5045212;28;20056;-65
2021/04/27 10:02:07;;;;;;;9.13;2.58;;;14.90;53.80;;;;;;5054191;28;20045;-65
2021/04/27 10:04:33;;;;;;;6.85;3.45;;;14.90;54.00;;;;;;5052010;28;20398;-66
2021/04/27 10:07:01;;;;;;;6.38;2.55;;;14.90;52.90;;;;;;5069440;28;20029;-66
2021/04/27 10:09:28;;;;;;;5.28;2.65;;;14.80;53.20;;;;;;5054126;28;20116;-64
2021/04/27 10:11:55;;;;;;;4.85;2.53;;;14.60;53.60;;;;;;5036241;28;20037;-66
2021/04/27 10:14:22;;;;;;;7.97;3.05;;;15.10;55.20;;;;;;5069286;28;20032;-66
2021/04/27 10:16:49;;;;;;;7.50;2.88;;;15.00;54.50;;;;;;5069274;28;20036;-65
2021/04/27 10:19:15;;;;;;;7.95;2.53;;;14.90;53.60;;;;;;5053949;28;20090;-64
2021/04/27 10:21:41;;;;;;;8.23;3.25;;;15.30;53.20;;;;;;5068863;28;20485;-65
2021/04/27 10:24:13;;;;;;;5.55;2.70;;;15.60;52.70;;;;;;5052430;28;20033;-65
2021/04/27 10:26:44;;;;;;;6.70;3.05;;;15.40;52.30;;;;;;5069023;28;20388;-67
2021/04/27 10:29:26;;;;;;;4.93;2.63;;;15.40;52.30;;;;;;5049948;28;20096;-66
2021/04/27 10:32:19;;;;;;;4.82;2.60;;;15.80;51.30;;;;;;5050763;28;20068;-66
2021/04/27 10:35:12;;;;;;;5.30;2.63;;;15.70;51.30;;;;;;5032554;28;20025;-67
2021/04/27 10:38:06;;;;;;;7.50;3.33;;;15.60;50.90;;;;;;5031786;28;20064;-67
2021/04/27 10:41:03;;;;;;;7.55;3.28;;;15.70;50.50;;;;;;5033293;28;20432;-66
2021/04/27 10:43:34;;;;;;;8.60;2.95;;;16.00;50.80;;;;;;5033747;28;20029;-66
2021/04/27 10:46:17;;;;;;;5.00;2.85;;;16.30;50.80;;;;;;5033224;28;20543;-65
2021/04/27 10:48:46;;;;;;;5.20;2.40;;;16.50;50.40;;;;;;5033343;28;20124;-67
2021/04/27 10:51:21;;;;;;;5.75;2.78;;;16.20;50.70;;;;;;5033238;28;20035;-70
2021/04/27 10:54:18;;;;;;;5.53;2.90;;;16.50;49.90;;;;;;5033360;28;20084;-68
2021/04/27 10:56:55;;;;;;;7.22;2.80;;;16.80;49.90;;;;;;5033332;28;20044;-69
2021/04/27 10:59:25;;;;;;;7.32;3.42;;;16.70;48.90;;;;;;5033117;28;20045;-70
2021/04/27 11:02:24;;;;;;;9.52;3.15;;;17.10;49.40;;;;;;5032958;28;20032;-69
2021/04/27 11:04:53;;;;;;;5.90;3.28;;;16.80;49.70;;;;;;5047103;28;20386;-70
2021/04/27 11:07:19;;;;;;;7.60;2.70;;;16.90;49.40;;;;;;5033063;28;20026;-69
2021/04/27 11:10:06;;;;;;;6.63;3.10;;;16.90;49.50;;;;;;5033151;28;20037;-69
2021/04/27 11:12:44;;;;;;;8.10;2.88;;;16.90;47.80;;;;;;5033029;28;20179;-70
2021/04/27 11:15:19;;;;;;;6.28;2.70;;;17.30;48.00;;;;;;5048011;28;20567;-69
2021/04/27 11:18:15;;;;;;;6.75;2.90;;;17.80;46.60;;;;;;5035280;28;20037;-69
2021/04/27 11:20:53;;;;;;;9.40;3.25;;;17.60;47.50;;;;;;5032494;28;20112;-68
2021/04/27 11:23:45;;;;;;;6.68;2.90;;;17.90;46.60;;;;;;5015323;28;20371;-70
2021/04/27 11:26:32;;;;;;;6.80;2.90;;;17.90;47.10;;;;;;5032636;28;20041;-70
2021/04/27 11:28:59;;;;;;;9.93;2.88;;;18.00;45.90;;;;;;5032523;28;20032;-69
2021/04/27 11:31:26;;;;;;;6.05;2.63;;;18.00;48.60;;;;;;5032552;28;20083;-69
2021/04/27 11:34:00;;;;;;;10.10;4.03;;;18.10;45.60;;;;;;5047715;28;20034;-68
2021/04/27 11:36:53;;;;;;;5.18;3.00;;;18.20;46.50;;;;;;5032690;28;20120;-68
2021/04/27 11:39:21;;;;;;;4.38;2.53;;;18.30;45.10;;;;;;5029815;28;20069;-69
2021/04/27 11:42:03;;;;;;;6.90;3.20;;;18.20;45.40;;;;;;5032773;28;20029;-69
2021/04/27 11:44:36;;;;;;;8.02;3.80;;;18.10;46.00;;;;;;5046860;28;20048;-69
2021/04/27 11:47:06;;;;;;;5.55;3.25;;;18.20;47.00;;;;;;5032293;28;20112;-69
2021/04/27 11:49:51;;;;;;;5.40;2.70;;;18.40;45.00;;;;;;5032216;28;20035;-67
2021/04/27 11:52:37;;;;;;;7.93;3.05;;;19.00;44.40;;;;;;5032201;28;20036;-70
2021/04/27 11:55:35;;;;;;;7.25;2.60;;;19.30;44.30;;;;;;5032170;28;20034;-69
2021/04/27 11:58:12;;;;;;;5.72;2.78;;;19.10;44.20;;;;;;5032158;28;20025;-69
2021/04/27 12:00:54;;;;;;;5.28;2.90;;;19.50;43.80;;;;;;5047114;28;20393;-68
2021/04/27 12:03:24;;;;;;;5.25;2.90;;;19.10;44.40;;;;;;5031978;28;20441;-69
2021/04/27 12:06:16;;;;;;;4.93;2.72;;;19.10;43.30;;;;;;5032219;28;20033;-69
2021/04/27 12:08:54;;;;;;;5.80;3.10;;;19.40;43.80;;;;;;5032260;28;20037;-68
2021/04/27 12:11:33;;;;;;;4.82;2.20;;;19.80;43.50;;;;;;5032274;28;20029;-69
2021/04/27 12:14:02;;;;;;;9.63;3.80;;;19.20;43.70;;;;;;5014128;28;20045;-68
2021/04/27 12:16:51;;;;;;;5.28;2.72;;;19.40;43.60;;;;;;5033201;28;20108;-68
2021/04/27 12:19:22;;;;;;;6.20;2.72;;;19.60;43.80;;;;;;5048980;28;20161;-68
2021/04/27 12:22:00;;;;;;;3.63;2.35;;;19.40;42.70;;;;;;5050879;28;20038;-67
2021/04/27 12:24:38;;;;;;;7.88;3.08;;;20.10;43.90;;;;;;5018483;28;20033;-68
2021/04/27 12:27:22;;;;;;;5.10;2.30;;;20.60;41.00;;;;;;5036011;28;20053;-68
2021/04/27 12:30:09;;;;;;;4.47;2.88;;;20.90;40.50;;;;;;5036023;28;20083;-68
2021/04/27 12:32:38;;;;;;;7.90;2.88;;;20.70;40.40;;;;;;5018225;28;20037;-68
2021/04/27 12:35:20;;;;;;;5.07;2.80;;;20.40;40.70;;;;;;5035675;28;20053;-68
2021/04/27 12:38:11;;;;;;;11.07;3.00;;;20.10;41.00;;;;;;5035784;28;20102;-68
2021/04/27 12:40:43;;;;;;;5.22;3.05;;;19.80;40.40;;;;;;5035910;28;20079;-69
2021/04/27 12:43:12;;;;;;;6.93;3.22;;;19.80;40.50;;;;;;5035780;28;20109;-68
2021/04/27 12:45:46;;;;;;;5.32;3.00;;;19.50;41.10;;;;;;5035901;28;20026;-68
2021/04/27 12:48:14;;;;;;;4.45;2.22;;;20.10;41.50;;;;;;5035604;28;20040;-69
2021/04/27 12:50:53;;;;;;;4.72;2.20;;;21.00;38.30;;;;;;5035623;28;20025;-69
2021/04/27 12:53:21;;;;;;;7.40;2.58;;;20.80;38.50;;;;;;5035408;28;20128;-68
2021/04/27 12:55:54;;;;;;;7.45;2.80;;;20.80;38.40;;;;;;5017426;28;20576;-68
2021/04/27 12:58:26;;;;;;;7.40;3.42;;;21.30;39.20;;;;;;5021589;28;20034;-68
2021/04/27 13:00:54;;;;;;;5.00;3.42;;;21.00;37.60;;;;;;5035471;28;20033;-68
2021/04/27 13:03:25;;;;;;;5.90;3.10;;;21.40;38.90;;;;;;5035283;28;20029;-69
2021/04/27 13:05:52;;;;;;;;;;;21.40;37.90;;;;;;5035844;28;20485;-69
2021/04/27 13:08:24;;;;;;;5.93;2.38;;;21.70;37.70;;;;;;5035059;28;19913;-68
2021/04/27 13:10:51;;;;;;;6.78;2.95;;;22.50;37.90;;;;;;5050047;28;20026;-69